Time;durP1;ratioP1;P1;durP2;ratioP2;P2;SDS_P1;SDS_P2;PMS_P1;PMS_P2;Temp;Humidity;BMP_temperature;BMP_pressure;BME280_temperature;BME280_humidity;BME280_pressure;Samples;Min_cycle;Max_cycle;Signal;HPM_P1;HPM_P2
2023/05/21 00:01:24;;;;;;;7.55;6.85;;;;;;;17.75;63.46;95220.75;4977096;28;20216;-87
2023/05/21 00:03:50;;;;;;;7.95;7.15;;;;;;;17.77;63.24;95228.34;4971483;28;20228;-87
2023/05/21 00:06:19;;;;;;;8.15;6.72;;;;;;;17.81;63.54;95214.66;4972498;28;20825;-87
2023/05/21 00:08:48;;;;;;;8.50;6.47;;;;;;;17.70;62.84;95212.88;4971622;28;20220;-87
2023/05/21 00:11:14;;;;;;;7.75;7.05;;;;;;;17.74;63.24;95213.97;4977207;28;21062;-87
2023/05/21 00:13:42;;;;;;;7.03;6.43;;;;;;;17.67;62.62;95221.13;4972073;28;20223;-87
2023/05/21 00:16:09;;;;;;;6.93;6.32;;;;;;;17.70;62.14;95207.66;4971509;28;20215;-87
2023/05/21 00:18:38;;;;;;;7.30;6.60;;;;;;;17.72;62.09;95205.59;4972272;28;20200;-87
2023/05/21 00:21:04;;;;;;;7.03;6.43;;;;;;;17.66;62.07;95205.75;4971112;28;20236;-87
2023/05/21 00:23:32;;;;;;;7.30;6.70;;;;;;;17.64;61.86;95210.34;4971623;28;20197;-88
2023/05/21 00:25:58;;;;;;;6.85;6.25;;;;;;;17.66;61.76;95203.94;4972566;28;20212;-88
2023/05/21 00:28:25;;;;;;;7.00;6.30;;;;;;;17.61;62.03;95196.78;4972243;28;20223;-87
2023/05/21 00:30:52;;;;;;;6.38;5.88;;;;;;;17.64;62.39;95205.16;4971877;28;20617;-87
2023/05/21 00:33:20;;;;;;;6.93;6.32;;;;;;;17.60;62.19;95195.19;4975799;28;20230;-88
2023/05/21 00:35:47;;;;;;;6.82;6.20;;;;;;;17.60;61.21;95194.41;4982593;28;20203;-87
2023/05/21 00:38:13;;;;;;;7.18;6.55;;;;;;;17.56;61.30;95188.84;4986857;28;20227;-86
2023/05/21 00:40:40;;;;;;;7.28;6.57;;;;;;;17.50;61.00;95194.19;4971544;28;20208;-88
2023/05/21 00:43:07;;;;;;;7.07;6.38;;;;;;;17.45;61.51;95189.66;4971507;28;20196;-88
2023/05/21 00:45:35;;;;;;;8.20;5.68;;;;;;;17.42;61.36;95189.34;4971853;28;20246;-87
2023/05/21 00:48:05;;;;;;;10.20;6.10;;;;;;;17.35;61.39;95186.84;4972197;28;20291;-88
2023/05/21 00:50:32;;;;;;;6.82;6.30;;;;;;;17.34;61.56;95187.06;4972026;28;20267;-86
2023/05/21 00:52:58;;;;;;;6.57;5.97;;;;;;;17.31;61.05;95188.34;4971841;28;20227;-87
2023/05/21 00:55:25;;;;;;;7.15;6.00;;;;;;;17.31;60.72;95187.53;4971246;28;20224;-87
2023/05/21 00:57:56;;;;;;;7.63;6.07;;;;;;;17.32;60.18;95186.53;4971667;28;20693;-87
2023/05/21 01:00:25;;;;;;;7.03;6.10;;;;;;;17.27;60.29;95184.59;4971412;28;20201;-87
2023/05/21 01:02:51;;;;;;;6.90;6.20;;;;;;;17.34;60.08;95176.66;4970246;28;20666;-87
2023/05/21 01:05:20;;;;;;;6.85;6.25;;;;;;;17.32;59.65;95183.94;4967836;28;20331;-88
2023/05/21 01:07:47;;;;;;;7.50;6.35;;;;;;;17.30;59.55;95180.75;4978390;28;20207;-87
2023/05/21 01:10:14;;;;;;;6.88;6.28;;;;;;;17.21;59.75;95183.69;4970550;28;20210;-88
2023/05/21 01:12:43;;;;;;;6.50;5.93;;;;;;;17.31;60.00;95188.34;4970587;28;20298;-87
2023/05/21 01:15:11;;;;;;;6.50;5.85;;;;;;;17.26;59.77;95188.22;4970892;28;20259;-86
2023/05/21 01:17:38;;;;;;;9.63;6.40;;;;;;;17.36;59.26;95182.44;4970890;28;20212;-87
2023/05/21 01:20:09;;;;;;;7.15;6.45;;;;;;;17.33;59.14;95185.47;4970915;28;20611;-87
2023/05/21 01:22:43;;;;;;;6.75;6.15;;;;;;;17.27;59.27;95187.19;4971067;28;20204;-88
2023/05/21 01:25:11;;;;;;;6.85;6.25;;;;;;;17.30;59.24;95183.38;4970659;28;20220;-87
2023/05/21 01:27:39;;;;;;;7.20;6.60;;;;;;;17.26;59.77;95191.63;4969862;28;20212;-87
2023/05/21 01:30:07;;;;;;;6.40;5.90;;;;;;;17.17;59.61;95185.16;4973198;28;20258;-89
2023/05/21 01:32:42;;;;;;;6.53;5.93;;;;;;;17.14;59.35;95179.63;4981398;28;20231;-87
2023/05/21 01:35:12;;;;;;;6.82;5.80;;;;;;;17.05;59.21;95181.00;4989476;28;20234;-87
2023/05/21 01:37:44;;;;;;;6.88;6.22;;;;;;;17.03;59.76;95177.81;4990380;28;20214;-87
2023/05/21 01:40:17;;;;;;;6.93;6.03;;;;;;;17.04;59.63;95182.00;4970471;28;20254;-87
2023/05/21 01:42:47;;;;;;;6.28;5.78;;;;;;;17.04;59.52;95177.59;4970378;28;20200;-87
2023/05/21 01:45:18;;;;;;;6.63;5.38;;;;;;;16.97;59.67;95170.91;4970399;28;20228;-87
2023/05/21 01:47:47;;;;;;;6.00;5.40;;;;;;;16.98;59.38;95175.09;4970540;28;20211;-87
2023/05/21 01:50:15;;;;;;;6.25;5.70;;;;;;;17.11;59.31;95172.28;4970562;28;20215;-87
2023/05/21 01:52:48;;;;;;;6.78;6.10;;;;;;;17.18;59.48;95171.13;4970446;28;20255;-87
2023/05/21 01:55:16;;;;;;;6.05;5.47;;;;;;;17.15;59.15;95174.19;4970332;28;20228;-86
2023/05/21 01:57:45;;;;;;;7.63;5.93;;;;;;;17.15;59.40;95174.19;4970085;28;20223;-87
2023/05/21 02:00:13;;;;;;;6.22;5.72;;;;;;;17.03;58.72;95173.41;4970964;28;20382;-87
2023/05/21 02:02:40;;;;;;;6.03;5.43;;;;;;;16.99;58.68;95168.88;4975623;28;20251;-88
2023/05/21 02:05:07;;;;;;;6.95;5.53;;;;;;;16.97;59.06;95174.31;4970918;28;20232;-88
2023/05/21 02:07:33;;;;;;;6.90;5.90;;;;;;;16.94;59.57;95169.53;4970669;28;20214;-87
2023/05/21 02:10:00;;;;;;;7.10;6.05;;;;;;;16.91;59.71;95167.44;4970576;28;20211;-87
2023/05/21 02:12:28;;;;;;;6.45;5.93;;;;;;;16.99;58.70;95163.69;4970031;28;20200;-86
2023/05/21 02:14:55;;;;;;;6.85;5.70;;;;;;;16.97;57.75;95169.09;4970553;28;20224;-87
2023/05/21 02:17:21;;;;;;;5.82;5.32;;;;;;;16.95;57.89;95172.94;4970041;28;20242;-87
2023/05/21 02:19:48;;;;;;;6.03;5.53;;;;;;;17.08;58.07;95175.34;4970292;28;20204;-87
2023/05/21 02:22:14;;;;;;;7.07;5.53;;;;;;;17.04;57.40;95166.41;4970214;28;20825;-87
2023/05/21 02:24:41;;;;;;;6.80;5.78;;;;;;;17.00;57.15;95162.66;4970107;28;20220;-87
2023/05/21 02:27:09;;;;;;;6.38;5.88;;;;;;;16.96;57.43;95174.53;4977686;28;20236;-87
2023/05/21 02:29:37;;;;;;;6.32;5.75;;;;;;;16.85;57.79;95174.31;4985150;28;20203;-87
2023/05/21 02:32:06;;;;;;;6.63;5.65;;;;;;;16.77;57.51;95166.81;4989690;28;20209;-87
2023/05/21 02:34:35;;;;;;;6.40;5.80;;;;;;;16.73;57.89;95168.31;4989445;28;20227;-87
2023/05/21 02:37:01;;;;;;;5.70;5.07;;;;;;;16.70;57.74;95170.56;4989704;28;20303;-86
2023/05/21 02:39:28;;;;;;;5.93;5.43;;;;;;;16.75;57.48;95168.06;4977170;28;20196;-88
2023/05/21 02:41:54;;;;;;;6.32;5.80;;;;;;;16.80;57.57;95168.19;4973756;28;20212;-87
2023/05/21 02:44:22;;;;;;;6.95;5.70;;;;;;;16.80;57.53;95168.19;4974092;28;20223;-87
2023/05/21 02:46:52;;;;;;;5.70;5.20;;;;;;;16.76;57.82;95159.25;4973710;28;20294;-87
2023/05/21 02:49:18;;;;;;;6.25;5.50;;;;;;;16.79;57.41;95164.78;4973668;28;20223;-87
2023/05/21 02:51:45;;;;;;;6.28;5.78;;;;;;;16.70;57.67;95166.16;4973395;28;20218;-86
2023/05/21 02:54:11;;;;;;;6.20;5.60;;;;;;;16.63;58.32;95170.66;4973514;28;20227;-87
2023/05/21 02:56:38;;;;;;;6.03;5.43;;;;;;;16.56;58.13;95169.94;4974129;28;20210;-88
2023/05/21 02:59:04;;;;;;;6.32;5.60;;;;;;;16.55;58.61;95173.53;4973818;28;20201;-87
2023/05/21 03:01:30;;;;;;;5.90;5.30;;;;;;;16.56;59.05;95173.31;4973626;28;20227;-87
2023/05/21 03:03:58;;;;;;;5.78;5.20;;;;;;;16.57;58.68;95161.91;4973124;28;20220;-86
2023/05/21 03:06:25;;;;;;;6.57;5.93;;;;;;;16.46;58.77;95167.09;4973204;28;20227;-87
2023/05/21 03:08:51;;;;;;;5.95;5.28;;;;;;;16.50;58.95;95163.84;4973623;28;20212;-86
2023/05/21 03:11:21;;;;;;;6.43;5.82;;;;;;;16.52;58.60;95163.63;4973040;28;20205;-86
2023/05/21 03:13:47;;;;;;;5.97;5.38;;;;;;;16.44;58.70;95161.34;4973597;28;20228;-88
2023/05/21 03:16:14;;;;;;;6.43;5.78;;;;;;;16.41;58.91;95162.56;4973654;28;20226;-86
2023/05/21 03:18:42;;;;;;;6.30;5.55;;;;;;;16.41;58.67;95164.38;4973189;28;20208;-86
2023/05/21 03:21:12;;;;;;;5.75;5.25;;;;;;;16.37;58.78;95163.22;4972519;28;20690;-87
2023/05/21 03:23:40;;;;;;;7.10;6.40;;;;;;;16.32;58.67;95153.53;4981455;28;20228;-87
2023/05/21 03:26:07;;;;;;;5.72;5.28;;;;;;;16.27;58.98;95152.59;4991825;28;20199;-88
2023/05/21 03:28:33;;;;;;;6.03;5.53;;;;;;;16.24;58.99;95154.63;4992774;28;20207;-87
2023/05/21 03:31:00;;;;;;;6.55;5.30;;;;;;;16.24;58.48;95154.63;4992667;28;20207;-86
2023/05/21 03:33:26;;;;;;;6.28;5.72;;;;;;;16.20;58.92;95158.66;4992153;28;20227;-87
2023/05/21 03:35:53;;;;;;;5.95;5.45;;;;;;;16.21;59.14;95160.25;4992142;28;20211;-87
2023/05/21 03:38:21;;;;;;;6.70;5.40;;;;;;;16.22;59.30;95161.84;4987734;28;20197;-87
2023/05/21 03:40:47;;;;;;;6.63;6.03;;;;;;;16.19;58.98;95158.88;4972458;28;20219;-87
2023/05/21 03:43:15;;;;;;;5.97;5.40;;;;;;;16.24;58.87;95156.44;4972814;28;20204;-87
2023/05/21 03:45:42;;;;;;;6.72;5.82;;;;;;;16.26;58.39;95156.19;4973087;28;20228;-87
2023/05/21 03:48:08;;;;;;;5.97;5.43;;;;;;;16.26;58.17;95158.81;4972230;28;20211;-88
2023/05/21 03:50:35;;;;;;;6.63;5.75;;;;;;;16.24;58.27;95159.81;4971584;28;20212;-87
2023/05/21 03:53:04;;;;;;;6.68;6.07;;;;;;;16.33;58.42;95155.09;4972714;28;20200;-87
2023/05/21 03:55:32;;;;;;;6.45;5.85;;;;;;;16.42;58.25;95155.56;4972106;28;20235;-87
2023/05/21 03:57:59;;;;;;;7.20;6.00;;;;;;;16.43;58.21;95152.75;4972578;28;20725;-86
2023/05/21 04:00:28;;;;;;;6.00;5.50;;;;;;;16.44;58.00;95143.94;4972343;28;20196;-87
2023/05/21 04:02:54;;;;;;;6.57;5.97;;;;;;;16.50;58.41;95153.44;4971301;28;20215;-87
2023/05/21 04:05:21;;;;;;;6.53;5.93;;;;;;;16.48;58.15;95154.69;4972051;28;20232;-87
2023/05/21 04:07:47;;;;;;;7.05;5.82;;;;;;;16.35;58.61;95160.88;4972596;28;20206;-87
2023/05/21 04:10:13;;;;;;;6.90;6.05;;;;;;;16.27;59.40;95157.78;4972128;28;20200;-87
2023/05/21 04:12:41;;;;;;;6.47;5.88;;;;;;;16.22;59.51;95155.84;4972340;28;20212;-87
2023/05/21 04:15:08;;;;;;;6.20;5.65;;;;;;;16.14;59.75;95162.16;4972313;28;20252;-87
2023/05/21 04:17:35;;;;;;;7.28;6.00;;;;;;;16.18;59.79;95159.91;4972575;28;20214;-88
2023/05/21 04:20:02;;;;;;;7.07;6.00;;;;;;;16.17;59.53;95158.31;4982224;28;20204;-87
2023/05/21 04:22:31;;;;;;;6.25;5.60;;;;;;;16.12;59.62;95159.00;4991602;28;20298;-86
2023/05/21 04:24:58;;;;;;;7.13;6.43;;;;;;;16.19;59.34;95166.69;4991376;28;20223;-87
2023/05/21 04:27:26;;;;;;;6.28;5.72;;;;;;;16.24;59.40;95156.44;4991853;28;20215;-87
2023/05/21 04:29:56;;;;;;;6.80;6.10;;;;;;;16.38;59.09;95167.41;4991233;28;20203;-87
2023/05/21 04:32:23;;;;;;;6.50;5.80;;;;;;;16.38;58.92;95163.00;4991138;28;20211;-87
2023/05/21 04:34:50;;;;;;;6.68;6.07;;;;;;;16.39;59.10;95174.97;4991441;28;20828;-87
2023/05/21 04:37:19;;;;;;;6.60;6.00;;;;;;;16.37;58.92;95173.63;4991113;28;20214;-87
2023/05/21 04:39:45;;;;;;;6.80;6.18;;;;;;;16.28;59.38;95173.16;4974674;28;20202;-86
2023/05/21 04:42:12;;;;;;;6.55;5.95;;;;;;;16.31;59.88;95171.94;4971591;28;20204;-86
2023/05/21 04:44:39;;;;;;;6.43;5.82;;;;;;;16.21;60.02;95172.44;4971397;28;20224;-86
2023/05/21 04:47:07;;;;;;;7.50;6.60;;;;;;;16.21;60.15;95175.03;4971819;28;20208;-87
2023/05/21 04:49:34;;;;;;;7.57;6.03;;;;;;;16.21;60.26;95175.84;4971386;28;20275;-88
2023/05/21 04:52:01;;;;;;;6.88;6.28;;;;;;;16.29;60.10;95176.53;4971904;28;20199;-87
2023/05/21 04:54:28;;;;;;;6.65;5.78;;;;;;;16.36;60.34;95172.81;4971929;28;20290;-88
2023/05/21 04:56:54;;;;;;;5.78;5.28;;;;;;;16.48;59.38;95172.88;4971459;28;20211;-87
2023/05/21 04:59:21;;;;;;;6.82;6.18;;;;;;;16.59;59.10;95178.06;4971875;28;20560;-87
2023/05/21 05:01:48;;;;;;;7.25;6.50;;;;;;;16.59;59.59;95190.28;4970428;28;20228;-87
2023/05/21 05:04:16;;;;;;;6.80;6.20;;;;;;;16.63;59.39;95185.44;4970849;28;20235;-88
2023/05/21 05:06:42;;;;;;;6.80;6.20;;;;;;;16.55;58.96;95173.53;4971159;28;20716;-87
2023/05/21 05:09:14;;;;;;;6.82;5.97;;;;;;;16.63;59.47;95177.63;4970529;28;20204;-87
2023/05/21 05:11:41;;;;;;;6.97;6.28;;;;;;;16.65;60.03;95184.22;4971010;28;20294;-88
2023/05/21 05:14:10;;;;;;;6.68;6.18;;;;;;;16.74;59.58;95176.91;4970861;28;20231;-87
2023/05/21 05:16:36;;;;;;;7.00;6.30;;;;;;;16.73;58.41;95178.72;4978703;28;20200;-87
2023/05/21 05:19:03;;;;;;;6.80;6.20;;;;;;;16.82;58.68;95185.16;4988540;28;20227;-88
2023/05/21 05:21:32;;;;;;;6.57;5.88;;;;;;;16.86;58.29;95181.09;4990406;28;20203;-87
2023/05/21 05:23:59;;;;;;;6.82;6.22;;;;;;;16.88;58.64;95180.88;4990550;28;20223;-87
2023/05/21 05:26:26;;;;;;;6.60;5.90;;;;;;;16.88;58.45;95178.28;4990186;28;20304;-87
2023/05/21 05:28:52;;;;;;;6.25;5.65;;;;;;;16.89;58.54;95185.06;4990981;28;20206;-87
2023/05/21 05:31:19;;;;;;;5.97;5.47;;;;;;;16.79;58.40;95175.19;4989847;28;20215;-88
2023/05/21 05:33:45;;;;;;;6.82;6.03;;;;;;;16.87;58.11;95180.06;4989736;28;20227;-87
2023/05/21 05:36:12;;;;;;;7.93;6.07;;;;;;;16.88;58.52;95184.25;4990245;28;20207;-87
2023/05/21 05:38:40;;;;;;;6.55;5.95;;;;;;;16.95;58.59;95185.94;4982567;28;20200;-87
2023/05/21 05:41:06;;;;;;;6.85;6.25;;;;;;;17.01;57.69;95185.84;4969926;28;20215;-87
2023/05/21 05:43:33;;;;;;;6.40;5.90;;;;;;;16.97;59.01;95182.09;4970751;28;20204;-87
2023/05/21 05:45:59;;;;;;;6.00;5.50;;;;;;;17.02;58.58;95182.22;4970062;28;20200;-87
2023/05/21 05:48:26;;;;;;;6.35;5.78;;;;;;;17.05;58.66;95188.78;4955759;28;20322;-87
2023/05/21 05:50:54;;;;;;;6.68;6.07;;;;;;;17.15;58.90;95171.59;4973597;28;20219;-87
2023/05/21 05:53:27;;;;;;;6.35;5.75;;;;;;;17.17;59.39;95177.34;4970839;28;20204;-88
2023/05/21 05:55:55;;;;;;;6.95;6.25;;;;;;;17.23;60.23;95173.06;4970661;28;20683;-87
2023/05/21 05:58:23;;;;;;;7.00;6.30;;;;;;;17.22;59.07;95181.88;4971112;28;20208;-87
2023/05/21 06:00:49;;;;;;;6.50;5.90;;;;;;;17.20;59.40;95184.72;4970390;28;20208;-87
2023/05/21 06:03:16;;;;;;;7.40;6.40;;;;;;;17.19;58.28;95183.13;4970018;28;20302;-87
2023/05/21 06:05:46;;;;;;;8.82;7.30;;;;;;;17.29;58.09;95187.78;4970835;28;20311;-88
2023/05/21 06:08:12;;;;;;;7.43;6.72;;;;;;;17.28;57.69;95188.78;4970785;28;20202;-87
2023/05/21 06:10:39;;;;;;;7.20;6.50;;;;;;;17.32;57.84;95189.91;4970163;28;20209;-88
2023/05/21 06:13:07;;;;;;;6.70;6.10;;;;;;;17.39;57.67;95179.38;4981195;28;20203;-87
2023/05/21 06:15:33;;;;;;;6.15;5.65;;;;;;;17.44;58.79;95180.28;4995832;28;20230;-88
2023/05/21 06:18:00;;;;;;;7.40;6.28;;;;;;;17.51;57.80;95180.94;4996354;28;20295;-88
2023/05/21 06:20:26;;;;;;;7.05;6.35;;;;;;;17.46;57.41;95180.84;4996679;28;20203;-87
2023/05/21 06:22:52;;;;;;;6.88;6.13;;;;;;;17.48;57.66;95176.22;4996323;28;20207;-87
2023/05/21 06:25:22;;;;;;;6.60;6.03;;;;;;;17.65;57.89;95180.72;4996635;28;20227;-88
2023/05/21 06:27:48;;;;;;;6.20;5.70;;;;;;;17.72;57.48;95181.38;4996595;28;20577;-87
2023/05/21 06:30:16;;;;;;;6.15;5.65;;;;;;;17.81;58.15;95187.81;4996186;28;20795;-87
2023/05/21 06:32:45;;;;;;;7.05;6.38;;;;;;;17.85;57.56;95181.13;4996546;28;20214;-87
2023/05/21 06:35:12;;;;;;;6.75;5.78;;;;;;;17.73;57.79;95194.16;4996167;28;20819;-87
2023/05/21 06:37:38;;;;;;;6.53;5.93;;;;;;;17.89;58.85;95190.84;4996593;28;20841;-86
2023/05/21 06:40:06;;;;;;;7.25;6.43;;;;;;;17.91;57.61;95191.38;4977488;28;20208;-88
2023/05/21 06:42:33;;;;;;;7.35;6.05;;;;;;;17.99;57.29;95192.06;4976688;28;20291;-87
2023/05/21 06:44:59;;;;;;;6.22;5.72;;;;;;;18.04;57.01;95190.34;4982171;28;20242;-87
2023/05/21 06:47:27;;;;;;;6.22;5.38;;;;;;;18.07;55.99;95186.50;4976402;28;20235;-88
2023/05/21 06:49:54;;;;;;;6.32;5.78;;;;;;;18.22;57.84;95190.16;4976572;28;20208;-87
2023/05/21 06:52:20;;;;;;;6.35;5.80;;;;;;;18.38;57.14;95185.22;4976482;28;20349;-88
2023/05/21 06:54:51;;;;;;;6.63;6.00;;;;;;;18.50;57.05;95191.94;4976408;28;20235;-88
2023/05/21 06:57:17;;;;;;;6.75;6.15;;;;;;;18.51;56.30;95185.69;4976282;28;20208;-87
2023/05/21 06:59:44;;;;;;;6.75;6.10;;;;;;;18.52;55.04;95183.88;4976146;28;20204;-86
2023/05/21 07:02:11;;;;;;;6.55;5.95;;;;;;;18.62;55.13;95189.31;4975211;28;20682;-87
2023/05/21 07:04:38;;;;;;;6.35;5.72;;;;;;;18.76;56.69;95190.56;4976243;28;20220;-88
2023/05/21 07:07:05;;;;;;;6.38;5.70;;;;;;;18.87;55.27;95191.50;4979277;28;20211;-86
2023/05/21 07:09:33;;;;;;;5.90;5.40;;;;;;;18.94;53.40;95189.53;4982298;28;20196;-87
2023/05/21 07:12:00;;;;;;;7.57;5.65;;;;;;;18.97;53.45;95186.47;4976092;28;20219;-87
2023/05/21 07:14:27;;;;;;;6.32;5.80;;;;;;;19.08;54.54;95190.78;4976371;28;20236;-88
2023/05/21 07:16:54;;;;;;;6.57;5.95;;;;;;;19.15;53.15;95196.66;4976611;28;20610;-88
2023/05/21 07:19:20;;;;;;;6.07;5.57;;;;;;;19.36;54.12;95189.88;4976639;28;20217;-88
2023/05/21 07:21:49;;;;;;;7.72;5.85;;;;;;;19.44;51.75;95194.69;4976045;28;20208;-87
2023/05/21 07:24:17;;;;;;;5.45;4.95;;;;;;;19.42;49.69;95188.94;4975632;28;20220;-87
2023/05/21 07:26:44;;;;;;;5.50;5.00;;;;;;;19.48;49.66;95193.19;4972816;28;20588;-87
2023/05/21 07:29:10;;;;;;;5.57;4.60;;;;;;;19.53;48.72;95188.06;4973062;28;20220;-87
2023/05/21 07:31:37;;;;;;;5.20;4.72;;;;;;;19.67;48.95;95185.88;4972346;28;20204;-87
2023/05/21 07:34:03;;;;;;;5.57;4.65;;;;;;;19.74;47.38;95183.88;4972827;28;20739;-86
2023/05/21 07:36:32;;;;;;;5.25;4.68;;;;;;;19.84;48.01;95191.81;4972456;28;20200;-87
2023/05/21 07:39:00;;;;;;;5.57;5.07;;;;;;;19.87;47.21;95187.94;4972323;28;20259;-88
2023/05/21 07:41:26;;;;;;;5.63;5.13;;;;;;;19.88;46.57;95189.50;4972664;28;20254;-87
2023/05/21 07:43:53;;;;;;;5.18;4.78;;;;;;;19.87;46.48;95193.16;4972673;28;20228;-88
2023/05/21 07:46:19;;;;;;;5.10;4.70;;;;;;;19.94;47.37;95196.38;4972366;28;20204;-87
2023/05/21 07:48:47;;;;;;;8.45;5.07;;;;;;;19.95;46.07;95192.75;4972616;28;20215;-87
2023/05/21 07:51:13;;;;;;;5.45;4.95;;;;;;;19.92;45.79;95183.56;4972132;28;20251;-88
2023/05/21 07:53:42;;;;;;;5.30;4.78;;;;;;;20.11;46.25;95191.88;4972192;28;20215;-87
2023/05/21 07:56:13;;;;;;;6.35;5.35;;;;;;;20.23;46.69;95189.09;4972383;28;20260;-88
2023/05/21 07:58:40;;;;;;;5.97;5.38;;;;;;;20.31;46.74;95188.69;4972020;28;20678;-87
2023/05/21 08:01:06;;;;;;;10.23;4.90;;;;;;;20.29;45.89;95185.50;4972058;28;20203;-88
2023/05/21 08:03:36;;;;;;;5.32;4.93;;;;;;;20.35;46.87;95184.53;4976946;28;20202;-87
2023/05/21 08:06:02;;;;;;;6.38;4.85;;;;;;;20.50;47.17;95199.59;4973105;28;20208;-86
2023/05/21 08:08:29;;;;;;;5.22;4.82;;;;;;;20.51;46.46;95196.75;4972023;28;20196;-87
2023/05/21 08:10:55;;;;;;;5.80;5.03;;;;;;;20.54;47.32;95205.94;4971406;28;20204;-87
2023/05/21 08:13:23;;;;;;;6.72;5.32;;;;;;;20.47;45.54;95210.56;4971855;28;20752;-87
2023/05/21 08:15:50;;;;;;;5.03;4.63;;;;;;;20.49;46.20;95211.09;4971741;28;20227;-87
2023/05/21 08:18:17;;;;;;;5.68;5.15;;;;;;;20.44;45.66;95211.03;4971602;28;20208;-87
2023/05/21 08:20:44;;;;;;;6.97;5.43;;;;;;;20.33;46.20;95210.94;4971487;28;20283;-87
2023/05/21 08:23:10;;;;;;;5.53;5.07;;;;;;;20.30;47.17;95214.03;4971937;28;20208;-87
2023/05/21 08:25:37;;;;;;;6.10;5.50;;;;;;;20.30;46.98;95208.81;4971210;28;20228;-87
2023/05/21 08:28:03;;;;;;;6.13;5.53;;;;;;;20.31;46.79;95205.16;4971301;28;20300;-88
2023/05/21 08:30:31;;;;;;;6.00;5.50;;;;;;;20.35;47.30;95210.69;4971518;28;20208;-88
2023/05/21 08:32:58;;;;;;;5.72;4.70;;;;;;;20.33;48.56;95213.53;4971270;28;20212;-86
2023/05/21 08:35:24;;;;;;;5.28;4.88;;;;;;;20.30;46.89;95210.63;4971084;28;20714;-87
2023/05/21 08:37:51;;;;;;;5.63;5.22;;;;;;;20.38;47.40;95219.91;4970865;28;20211;-87
2023/05/21 08:40:17;;;;;;;6.20;5.60;;;;;;;20.40;47.75;95223.06;4971150;28;20201;-88
2023/05/21 08:42:47;;;;;;;5.68;5.05;;;;;;;20.35;47.93;95215.91;4970940;28;20215;-87
2023/05/21 08:45:15;;;;;;;7.25;6.53;;;;;;;20.37;49.22;95221.72;4970554;28;20224;-87
2023/05/21 08:47:44;;;;;;;6.10;5.50;;;;;;;20.43;48.72;95220.72;4970792;28;20204;-87
2023/05/21 08:50:12;;;;;;;5.93;5.43;;;;;;;20.41;48.60;95224.63;4971234;28;20401;-87
2023/05/21 08:52:39;;;;;;;6.00;5.50;;;;;;;20.42;49.42;95216.53;4970886;28;20231;-87
2023/05/21 08:55:07;;;;;;;5.95;5.45;;;;;;;20.56;49.78;95222.97;4970650;28;20231;-88
2023/05/21 08:57:43;;;;;;;6.70;6.10;;;;;;;20.71;50.94;95218.91;4969472;28;20204;-87
2023/05/21 09:00:11;;;;;;;8.48;7.68;;;;;;;20.78;49.55;95212.44;4970591;28;20379;-87
2023/05/21 09:02:42;;;;;;;6.13;5.63;;;;;;;20.85;49.41;95217.44;4977710;28;20203;-88
2023/05/21 09:05:11;;;;;;;7.00;6.35;;;;;;;20.96;50.03;95217.28;4971346;28;20306;-87
2023/05/21 09:07:43;;;;;;;6.38;5.28;;;;;;;20.99;49.15;95216.75;4970841;28;20204;-87
2023/05/21 09:10:13;;;;;;;6.38;5.88;;;;;;;21.03;49.65;95224.91;4971001;28;20670;-86
2023/05/21 09:12:40;;;;;;;6.75;6.10;;;;;;;21.11;50.48;95221.84;4971407;28;20237;-89
2023/05/21 09:15:07;;;;;;;6.18;5.68;;;;;;;21.23;50.32;95219.06;4971241;28;20244;-89
2023/05/21 09:17:34;;;;;;;6.85;6.22;;;;;;;21.33;50.80;95216.53;4971333;28;20219;-88
2023/05/21 09:20:11;;;;;;;6.80;6.20;;;;;;;21.46;49.71;95220.53;4971908;28;20704;-88
2023/05/21 09:22:42;;;;;;;9.25;6.05;;;;;;;21.58;50.31;95216.66;4971610;28;20215;-89
2023/05/21 09:25:10;;;;;;;6.45;5.85;;;;;;;21.76;50.21;95223.28;4970853;28;20266;-89
2023/05/21 09:27:37;;;;;;;7.28;6.60;;;;;;;21.86;50.61;95222.56;4971728;28;20639;-88
2023/05/21 09:30:05;;;;;;;7.40;6.07;;;;;;;21.91;49.47;95217.34;4970793;28;20200;-88
2023/05/21 09:32:31;;;;;;;6.68;6.18;;;;;;;22.03;48.47;95223.19;4975343;28;20244;-88
2023/05/21 09:35:06;;;;;;;7.55;6.80;;;;;;;22.18;49.40;95219.81;4970221;28;20224;-88
2023/05/21 09:37:37;;;;;;;6.85;6.25;;;;;;;22.24;48.82;95219.59;4970359;28;20211;-89
2023/05/21 09:40:10;;;;;;;7.32;6.63;;;;;;;22.37;49.19;95216.47;4970295;28;20202;-89
2023/05/21 09:42:38;;;;;;;6.72;6.10;;;;;;;22.50;47.83;95220.44;4969993;28;20219;-87
2023/05/21 09:45:06;;;;;;;6.70;6.07;;;;;;;22.65;48.52;95214.41;4970124;28;20225;-87
2023/05/21 09:47:33;;;;;;;6.85;6.25;;;;;;;22.76;48.02;95208.13;4969858;28;20208;-87
2023/05/21 09:50:00;;;;;;;7.25;6.63;;;;;;;22.93;47.58;95207.88;4969163;28;20662;-87
2023/05/21 09:52:28;;;;;;;7.95;6.70;;;;;;;23.15;47.57;95205.00;4969911;28;20210;-87
2023/05/21 09:54:57;;;;;;;6.57;6.05;;;;;;;23.27;47.94;95205.53;4969842;28;20224;-87
2023/05/21 09:57:25;;;;;;;7.07;6.38;;;;;;;23.51;47.18;95205.72;4977494;28;20204;-87
2023/05/21 09:59:52;;;;;;;6.80;6.20;;;;;;;23.74;47.15;95207.78;4984386;28;20210;-88
2023/05/21 10:02:20;;;;;;;7.45;6.50;;;;;;;23.87;45.79;95207.19;4968668;28;20210;-87
2023/05/21 10:04:48;;;;;;;14.70;13.40;;;;;;;23.82;45.54;95207.25;4969665;28;20763;-87
2023/05/21 10:07:17;;;;;;;7.47;6.78;;;;;;;23.69;44.72;95205.16;4970252;28;20543;-87
2023/05/21 10:09:47;;;;;;;6.57;5.97;;;;;;;23.50;44.03;95206.75;4969379;28;20208;-87
2023/05/21 10:12:17;;;;;;;6.20;5.63;;;;;;;23.49;44.61;95202.56;4969494;28;20203;-87
2023/05/21 10:14:51;;;;;;;6.65;5.97;;;;;;;23.40;42.67;95195.25;4969568;28;20224;-87
2023/05/21 10:17:18;;;;;;;6.80;6.20;;;;;;;23.39;43.25;95192.88;4969562;28;20294;-87
2023/05/21 10:19:46;;;;;;;6.00;5.50;;;;;;;23.52;43.67;95192.34;4969648;28;20210;-87
2023/05/21 10:22:13;;;;;;;6.90;6.40;;;;;;;23.59;42.23;95194.69;4969345;28;20825;-87
2023/05/21 10:24:40;;;;;;;6.38;5.78;;;;;;;23.69;42.94;95189.41;4969325;28;20223;-88
2023/05/21 10:27:07;;;;;;;6.65;6.05;;;;;;;24.10;40.91;95188.16;4969148;28;20271;-88
2023/05/21 10:29:37;;;;;;;6.90;5.43;;;;;;;24.52;41.31;95189.53;4969185;28;20203;-87
2023/05/21 10:32:05;;;;;;;9.23;6.28;;;;;;;24.82;40.53;95193.03;4969212;28;20212;-87
2023/05/21 10:34:32;;;;;;;5.97;5.38;;;;;;;24.99;39.45;95181.06;4969597;28;20311;-87
2023/05/21 10:37:02;;;;;;;5.63;5.10;;;;;;;25.06;37.23;95178.88;4969463;28;20224;-87
2023/05/21 10:39:30;;;;;;;5.90;5.40;;;;;;;25.13;37.28;95189.88;4969149;28;20586;-87
2023/05/21 10:42:05;;;;;;;5.97;5.38;;;;;;;25.26;36.63;95191.06;4969180;28;20212;-87
2023/05/21 10:44:44;;;;;;;5.45;4.95;;;;;;;25.42;35.62;95189.84;4969355;28;20625;-87
2023/05/21 10:47:31;;;;;;;5.43;5.03;;;;;;;25.50;34.56;95182.41;4969191;28;20632;-87
2023/05/21 10:50:14;;;;;;;5.53;5.03;;;;;;;25.59;34.96;95186.81;4969073;28;20230;-87
2023/05/21 10:52:56;;;;;;;6.38;5.78;;;;;;;25.78;34.91;95176.34;4975663;28;20207;-87
2023/05/21 10:55:38;;;;;;;5.50;5.10;;;;;;;25.86;34.63;95175.69;4981285;28;20226;-87
2023/05/21 10:58:23;;;;;;;5.43;4.93;;;;;;;25.81;33.27;95173.91;4988618;28;20210;-87
2023/05/21 11:00:53;;;;;;;5.22;4.82;;;;;;;25.78;33.41;95173.69;4980777;28;20211;-87
2023/05/21 11:03:20;;;;;;;5.85;5.28;;;;;;;25.72;34.01;95177.47;4972144;28;20200;-88
2023/05/21 11:05:52;;;;;;;5.78;5.20;;;;;;;25.73;33.95;95182.44;4972707;28;20232;-87
2023/05/21 11:08:22;;;;;;;5.70;5.20;;;;;;;25.67;34.84;95177.50;4972779;28;20200;-87
2023/05/21 11:10:54;;;;;;;5.47;5.07;;;;;;;25.67;34.15;95172.22;4972193;28;20674;-87
2023/05/21 11:13:22;;;;;;;5.65;5.00;;;;;;;25.63;33.64;95168.59;4972592;28;20215;-87
2023/05/21 11:16:15;;;;;;;5.97;5.47;;;;;;;25.40;33.24;95172.78;4972441;28;20223;-87
2023/05/21 11:19:01;;;;;;;5.45;4.95;;;;;;;25.25;33.73;95178.19;4972476;28;20208;-87
2023/05/21 11:21:33;;;;;;;5.47;5.07;;;;;;;25.12;33.50;95177.78;4972041;28;20204;-87
2023/05/21 11:24:09;;;;;;;5.65;5.05;;;;;;;25.08;33.86;95176.75;4972308;28;20234;-87
2023/05/21 11:27:05;;;;;;;5.70;5.13;;;;;;;25.04;33.49;95174.94;4972470;28;20291;-88
2023/05/21 11:29:43;;;;;;;5.70;5.07;;;;;;;25.03;33.24;95184.69;4972397;28;20240;-87
2023/05/21 11:32:13;;;;;;;5.75;5.25;;;;;;;25.07;33.88;95183.09;4971920;28;20204;-87
2023/05/21 11:34:42;;;;;;;5.50;5.10;;;;;;;25.08;34.01;95178.59;4972062;28;20756;-87
2023/05/21 11:37:27;;;;;;;5.47;4.97;;;;;;;25.20;33.80;95173.75;4972089;28;20315;-87
2023/05/21 11:39:55;;;;;;;5.25;4.85;;;;;;;25.35;33.19;95168.34;4972345;28;20248;-87